Time;durP1;ratioP1;P1;durP2;ratioP2;P2;SDS_P1;SDS_P2;PMS_P1;PMS_P2;Temp;Humidity;BMP_temperature;BMP_pressure;BME280_temperature;BME280_humidity;BME280_pressure;Samples;Min_cycle;Max_cycle;Signal;HPM_P1;HPM_P2
2021/05/24 00:00:36;;;;;;;8.35;4.10;;;10.70;94.50;;;;;;5050825;28;20049;-84
2021/05/24 00:03:03;;;;;;;7.53;4.18;;;11.00;94.50;;;;;;5050083;28;20048;-81
2021/05/24 00:05:32;;;;;;;9.60;4.35;;;10.90;94.60;;;;;;5068370;28;20123;-84
2021/05/24 00:07:59;;;;;;;7.03;4.28;;;10.90;94.60;;;;;;5079689;28;20047;-81
2021/05/24 00:10:30;;;;;;;7.63;4.22;;;10.90;94.50;;;;;;5072966;28;20106;-81
2021/05/24 00:13:00;;;;;;;8.25;3.80;;;10.90;94.60;;;;;;5068482;28;20059;-81
2021/05/24 00:15:31;;;;;;;7.30;4.35;;;10.80;94.50;;;;;;5032199;28;20076;-82
2021/05/24 00:17:57;;;;;;;6.57;4.40;;;10.90;94.50;;;;;;5066751;28;20508;-81
2021/05/24 00:20:28;;;;;;;5.30;3.90;;;10.80;94.60;;;;;;5049288;28;20132;-82
2021/05/24 00:22:55;;;;;;;6.50;4.07;;;10.90;94.60;;;;;;5053881;28;20044;-82
2021/05/24 00:25:21;;;;;;;5.35;3.90;;;10.90;94.60;;;;;;5067394;28;20069;-82
2021/05/24 00:27:48;;;;;;;6.70;3.80;;;10.90;94.60;;;;;;5069100;28;20443;-81
2021/05/24 00:30:15;;;;;;;4.45;3.75;;;10.90;94.70;;;;;;5033241;28;20076;-87
2021/05/24 00:32:42;;;;;;;5.57;3.80;;;10.90;94.60;;;;;;5082899;28;20048;-81
2021/05/24 00:35:09;;;;;;;6.43;3.95;;;10.90;94.70;;;;;;5058523;28;20044;-81
2021/05/24 00:37:36;;;;;;;6.35;3.60;;;10.90;94.70;;;;;;5059889;28;20052;-82
2021/05/24 00:40:05;;;;;;;4.53;3.10;;;10.90;94.70;;;;;;5068348;28;20056;-82
2021/05/24 00:42:32;;;;;;;4.68;3.58;;;10.90;94.60;;;;;;5068795;28;20036;-81
2021/05/24 00:44:58;;;;;;;4.53;3.63;;;10.90;94.70;;;;;;5071643;28;20056;-82
2021/05/24 00:47:23;;;;;;;5.80;3.42;;;10.90;95.00;;;;;;5056137;28;20052;-83
2021/05/24 00:49:49;;;;;;;4.60;3.15;;;10.90;95.00;;;;;;5063002;28;20452;-82
2021/05/24 00:52:15;;;;;;;3.67;2.95;;;10.90;95.00;;;;;;5076458;28;20455;-82
2021/05/24 00:54:41;;;;;;;3.85;2.90;;;10.90;95.00;;;;;;5053616;28;20243;-82
2021/05/24 00:57:07;;;;;;;4.45;2.80;;;10.90;95.00;;;;;;5070124;28;20079;-82
2021/05/24 00:59:35;;;;;;;4.85;2.80;;;10.90;94.90;;;;;;5053755;28;20048;-82
2021/05/24 01:02:03;;;;;;;4.25;2.92;;;11.00;95.00;;;;;;5071721;28;20056;-85
2021/05/24 01:04:34;;;;;;;6.50;3.22;;;10.90;95.10;;;;;;5071431;28;20044;-83
2021/05/24 01:07:00;;;;;;;5.72;3.10;;;10.90;95.30;;;;;;5093446;28;20532;-82
2021/05/24 01:09:26;;;;;;;5.65;3.00;;;10.90;95.30;;;;;;5063321;28;20496;-83
2021/05/24 01:11:52;;;;;;;3.47;2.70;;;10.90;95.40;;;;;;5072649;28;20056;-82
2021/05/24 01:14:18;;;;;;;4.10;2.38;;;10.90;95.30;;;;;;5069856;28;20070;-84
2021/05/24 01:16:48;;;;;;;4.55;2.80;;;10.90;95.30;;;;;;5072800;28;20044;-83
2021/05/24 01:19:14;;;;;;;5.38;2.80;;;10.90;95.30;;;;;;5069713;28;20123;-92
2021/05/24 01:21:40;;;;;;;3.13;2.65;;;11.00;95.30;;;;;;5070943;28;20068;-83
2021/05/24 01:24:06;;;;;;;3.00;2.60;;;10.90;95.30;;;;;;5055984;28;20072;-83
2021/05/24 01:26:32;;;;;;;3.70;2.47;;;10.90;95.20;;;;;;5071251;28;20048;-84
2021/05/24 01:28:58;;;;;;;5.43;2.80;;;10.90;95.30;;;;;;5072105;28;20052;-83
2021/05/24 01:31:23;;;;;;;5.53;2.53;;;10.90;95.30;;;;;;5071664;28;20083;-83
2021/05/24 01:33:49;;;;;;;8.35;2.50;;;10.90;95.30;;;;;;5068208;28;20044;-83
2021/05/24 01:36:15;;;;;;;3.60;2.45;;;10.90;95.30;;;;;;5070767;28;20515;-89
2021/05/24 01:38:43;;;;;;;4.78;2.30;;;10.80;95.30;;;;;;5070133;28;20052;-83
2021/05/24 01:41:11;;;;;;;2.95;2.13;;;10.90;95.30;;;;;;5070111;28;20484;-82
2021/05/24 01:43:37;;;;;;;3.97;2.40;;;10.90;95.30;;;;;;5071564;28;20107;-83
2021/05/24 01:46:04;;;;;;;2.75;2.20;;;10.90;95.30;;;;;;5073785;28;20470;-83
2021/05/24 01:48:31;;;;;;;3.90;2.40;;;10.90;95.30;;;;;;5073703;28;20123;-82
2021/05/24 01:50:57;;;;;;;4.07;2.30;;;10.90;95.30;;;;;;5061252;28;20052;-83
2021/05/24 01:53:23;;;;;;;3.95;2.28;;;11.40;95.40;;;;;;5068251;28;20451;-83
2021/05/24 01:55:50;;;;;;;5.32;2.20;;;11.00;95.30;;;;;;5084415;28;20525;-82
2021/05/24 01:58:17;;;;;;;3.70;2.38;;;10.90;95.30;;;;;;5052061;28;20099;-87
2021/05/24 02:00:44;;;;;;;4.97;2.75;;;10.90;95.20;;;;;;5072277;28;20048;-82
2021/05/24 02:03:10;;;;;;;2.95;2.25;;;10.90;95.20;;;;;;5054625;28;20048;-82
2021/05/24 02:05:37;;;;;;;4.32;2.22;;;10.90;95.20;;;;;;5070679;28;20036;-82
2021/05/24 02:08:04;;;;;;;3.60;2.47;;;10.90;95.00;;;;;;5070399;28;20040;-83
2021/05/24 02:10:39;;;;;;;3.78;2.40;;;11.00;95.00;;;;;;5068960;28;20041;-81
2021/05/24 02:13:06;;;;;;;3.25;2.53;;;10.90;94.80;;;;;;5070480;28;20123;-85
2021/05/24 02:15:35;;;;;;;7.57;2.67;;;11.00;94.90;;;;;;5051925;28;20044;-84
2021/05/24 02:18:03;;;;;;;3.80;2.50;;;11.00;94.80;;;;;;5070870;28;20183;-82
2021/05/24 02:20:30;;;;;;;3.88;2.70;;;11.00;94.80;;;;;;5068208;28;20044;-82
2021/05/24 02:22:58;;;;;;;3.50;2.42;;;11.00;94.90;;;;;;5071855;28;20086;-86
2021/05/24 02:25:25;;;;;;;4.13;2.80;;;11.00;94.80;;;;;;5073830;28;20069;-82
2021/05/24 02:27:52;;;;;;;4.25;2.80;;;11.00;94.90;;;;;;5069983;28;20052;-82
2021/05/24 02:30:20;;;;;;;4.50;2.50;;;11.00;94.90;;;;;;5052940;28;20104;-88
2021/05/24 02:32:46;;;;;;;4.90;2.70;;;11.00;94.90;;;;;;5071264;28;20044;-84
2021/05/24 02:35:14;;;;;;;6.60;2.80;;;11.00;94.80;;;;;;5069124;28;20048;-82
2021/05/24 02:37:41;;;;;;;3.65;2.45;;;11.00;94.80;;;;;;5068087;28;20503;-83
2021/05/24 02:40:09;;;;;;;5.55;2.83;;;11.00;94.70;;;;;;5069998;28;20139;-82
2021/05/24 02:42:36;;;;;;;3.63;2.42;;;11.00;94.70;;;;;;5051199;28;20167;-82
2021/05/24 02:45:06;;;;;;;5.13;2.78;;;11.00;94.80;;;;;;5069810;28;20075;-82
2021/05/24 02:47:32;;;;;;;4.93;2.60;;;11.00;94.80;;;;;;5068688;28;20488;-82
2021/05/24 02:49:58;;;;;;;2.75;2.45;;;11.00;94.80;;;;;;5069733;28;20063;-82
2021/05/24 02:52:23;;;;;;;3.50;2.35;;;11.10;94.90;;;;;;5069608;28;20428;-82
2021/05/24 02:54:49;;;;;;;4.07;2.70;;;11.00;94.80;;;;;;5052465;28;20136;-82
2021/05/24 02:57:15;;;;;;;4.97;2.70;;;11.10;94.90;;;;;;5069733;28;20040;-88
2021/05/24 02:59:41;;;;;;;4.93;2.40;;;11.10;94.90;;;;;;5070333;28;20510;-82
2021/05/24 03:02:11;;;;;;;3.95;2.58;;;11.10;94.80;;;;;;5069114;28;20075;-83
2021/05/24 03:04:37;;;;;;;3.83;2.40;;;11.10;94.80;;;;;;5047861;28;20036;-82
2021/05/24 03:07:04;;;;;;;4.28;2.53;;;11.10;94.80;;;;;;5051062;28;20068;-82
2021/05/24 03:09:31;;;;;;;3.40;2.30;;;11.10;94.80;;;;;;5067424;28;20063;-81
2021/05/24 03:11:57;;;;;;;4.50;2.50;;;11.10;94.90;;;;;;5060113;28;20078;-82
2021/05/24 03:14:23;;;;;;;5.18;2.30;;;11.10;94.90;;;;;;5069084;28;20094;-82
2021/05/24 03:16:49;;;;;;;6.75;2.45;;;11.10;94.90;;;;;;5051885;28;20049;-82
2021/05/24 03:19:15;;;;;;;3.95;2.30;;;11.00;94.90;;;;;;5068004;28;20439;-82
2021/05/24 03:21:43;;;;;;;3.85;2.30;;;11.00;94.90;;;;;;5067669;28;20052;-82
2021/05/24 03:24:10;;;;;;;5.15;2.20;;;11.00;94.80;;;;;;5043854;28;20048;-82
2021/05/24 03:26:36;;;;;;;3.20;2.10;;;11.10;94.80;;;;;;5079133;28;20055;-81
2021/05/24 03:29:03;;;;;;;4.05;2.15;;;11.10;94.80;;;;;;5073455;28;20050;-82
2021/05/24 03:31:28;;;;;;;2.80;2.00;;;11.10;94.70;;;;;;5069045;28;20408;-82
2021/05/24 03:33:54;;;;;;;4.18;2.40;;;11.10;94.70;;;;;;5067251;28;20049;-80
2021/05/24 03:36:20;;;;;;;2.95;2.10;;;11.10;94.70;;;;;;5050196;28;20111;-88
2021/05/24 03:38:46;;;;;;;4.32;2.58;;;11.20;94.70;;;;;;5066766;28;20056;-82
2021/05/24 03:41:12;;;;;;;4.13;2.20;;;11.20;94.60;;;;;;5069156;28;20143;-81
2021/05/24 03:43:42;;;;;;;3.10;2.33;;;11.20;94.50;;;;;;5050355;28;20043;-81
2021/05/24 03:46:08;;;;;;;3.65;2.05;;;11.20;94.40;;;;;;5069477;28;20060;-81
2021/05/24 03:48:33;;;;;;;2.92;2.05;;;11.20;94.40;;;;;;5051748;28;20138;-81
2021/05/24 03:50:59;;;;;;;3.25;2.20;;;11.20;94.30;;;;;;5061136;28;20118;-81
2021/05/24 03:53:25;;;;;;;5.00;2.17;;;11.30;94.30;;;;;;5049714;28;20056;-81
2021/05/24 03:55:51;;;;;;;4.07;2.38;;;11.30;94.30;;;;;;5048455;28;20088;-82
2021/05/24 03:58:17;;;;;;;4.35;2.03;;;11.30;94.20;;;;;;5048554;28;20485;-87
2021/05/24 04:00:42;;;;;;;3.60;2.20;;;11.30;94.20;;;;;;5052412;28;20505;-82
2021/05/24 04:03:08;;;;;;;3.72;2.30;;;11.30;94.20;;;;;;5067310;28;20044;-81
2021/05/24 04:05:37;;;;;;;5.95;2.42;;;11.30;94.20;;;;;;5048110;28;20053;-81
2021/05/24 04:08:05;;;;;;;4.88;2.63;;;11.30;94.20;;;;;;5047949;28;20140;-81
2021/05/24 04:10:37;;;;;;;3.20;2.03;;;11.30;94.10;;;;;;5047100;28;20055;-81
2021/05/24 04:13:03;;;;;;;4.47;2.40;;;11.30;94.20;;;;;;5014565;28;20084;-82
2021/05/24 04:15:29;;;;;;;9.65;3.00;;;11.30;94.20;;;;;;5047295;28;20049;-81
2021/05/24 04:18:01;;;;;;;5.63;2.33;;;11.30;94.20;;;;;;5047827;28;20057;-81
2021/05/24 04:20:27;;;;;;;4.13;2.30;;;11.30;94.00;;;;;;5048861;28;20099;-82
2021/05/24 04:22:53;;;;;;;4.25;2.40;;;11.40;94.10;;;;;;5047860;28;20053;-82
2021/05/24 04:25:19;;;;;;;4.22;2.38;;;11.30;94.10;;;;;;5037553;28;20049;-88
2021/05/24 04:27:45;;;;;;;4.10;2.20;;;11.30;94.00;;;;;;5040894;28;20046;-83
2021/05/24 04:30:14;;;;;;;3.90;2.15;;;11.40;94.00;;;;;;5048394;28;20044;-82
2021/05/24 04:32:40;;;;;;;4.45;2.20;;;11.40;94.00;;;;;;5048429;28;20064;-82
2021/05/24 04:35:08;;;;;;;5.20;2.42;;;11.30;94.10;;;;;;5041225;28;20409;-82
2021/05/24 04:37:34;;;;;;;5.03;2.50;;;11.40;94.00;;;;;;5044342;28;20103;-81
2021/05/24 04:40:00;;;;;;;6.72;2.20;;;11.40;94.10;;;;;;5047098;28;20057;-82
2021/05/24 04:42:26;;;;;;;4.43;2.10;;;11.50;94.10;;;;;;5048541;28;20765;-83
2021/05/24 04:44:53;;;;;;;4.65;2.25;;;11.40;94.10;;;;;;5052555;28;20041;-82
2021/05/24 04:47:18;;;;;;;4.32;2.25;;;11.50;94.10;;;;;;5047847;28;20045;-82
2021/05/24 04:49:51;;;;;;;6.20;2.40;;;11.50;94.10;;;;;;5048210;28;20469;-81
2021/05/24 04:52:18;;;;;;;4.13;2.40;;;11.50;93.90;;;;;;5047586;28;20123;-84
2021/05/24 04:54:44;;;;;;;3.88;2.20;;;11.50;93.90;;;;;;5067794;28;20045;-82
2021/05/24 04:57:12;;;;;;;6.10;2.28;;;11.50;94.00;;;;;;5067513;28;20119;-81
2021/05/24 04:59:38;;;;;;;4.03;1.95;;;11.60;93.90;;;;;;5065686;28;20052;-81
2021/05/24 05:02:04;;;;;;;3.03;2.05;;;11.60;94.00;;;;;;5067725;28;20519;-82
2021/05/24 05:04:30;;;;;;;4.07;2.10;;;11.60;94.00;;;;;;5081377;28;20048;-82
2021/05/24 05:06:57;;;;;;;3.22;1.95;;;11.60;94.00;;;;;;5067525;28;20152;-82
2021/05/24 05:09:25;;;;;;;3.22;1.85;;;11.70;93.90;;;;;;5067413;28;20051;-89
2021/05/24 05:11:55;;;;;;;4.07;2.10;;;11.70;93.80;;;;;;5066944;28;20524;-82
2021/05/24 05:14:25;;;;;;;3.17;1.85;;;11.70;93.80;;;;;;5065857;28;20118;-89
2021/05/24 05:16:52;;;;;;;4.28;1.80;;;11.70;93.60;;;;;;5065245;28;20079;-83
2021/05/24 05:19:18;;;;;;;4.47;1.92;;;11.80;93.80;;;;;;5067447;28;20071;-82
2021/05/24 05:21:48;;;;;;;3.40;1.90;;;11.80;93.70;;;;;;5066849;28;20143;-82
2021/05/24 05:24:14;;;;;;;3.70;1.65;;;11.80;93.60;;;;;;5068092;28;20428;-82
2021/05/24 05:26:41;;;;;;;3.30;1.70;;;11.90;93.80;;;;;;5068656;28;20047;-82
2021/05/24 05:29:07;;;;;;;4.85;1.80;;;11.80;93.70;;;;;;5091040;28;20055;-82
2021/05/24 05:31:33;;;;;;;4.13;1.75;;;12.00;94.10;;;;;;5077126;28;20388;-83
2021/05/24 05:33:58;;;;;;;3.28;1.70;;;11.90;93.90;;;;;;5052152;28;20065;-83
2021/05/24 05:36:26;;;;;;;2.95;1.90;;;11.90;93.90;;;;;;5070576;28;20435;-85
2021/05/24 05:38:52;;;;;;;3.30;1.83;;;12.00;93.80;;;;;;5053060;28;20045;-82
2021/05/24 05:41:18;;;;;;;4.97;1.90;;;12.00;93.80;;;;;;5070433;28;20072;-81
2021/05/24 05:43:44;;;;;;;4.32;1.90;;;12.00;93.70;;;;;;5071997;28;20523;-81
2021/05/24 05:46:10;;;;;;;3.92;1.80;;;12.00;93.80;;;;;;5061977;28;20052;-82
2021/05/24 05:48:36;;;;;;;3.55;1.60;;;12.10;93.80;;;;;;5069515;28;20407;-82
2021/05/24 05:51:03;;;;;;;4.72;1.70;;;12.10;93.60;;;;;;5065085;28;20545;-82
2021/05/24 05:53:30;;;;;;;3.45;1.80;;;12.20;93.50;;;;;;5049372;28;20095;-81
2021/05/24 05:55:56;;;;;;;3.28;1.70;;;12.30;93.60;;;;;;5045511;28;20073;-82
2021/05/24 05:58:22;;;;;;;2.72;1.70;;;12.30;93.50;;;;;;5032546;28;20500;-86
2021/05/24 06:00:48;;;;;;;4.38;1.80;;;12.20;93.50;;;;;;5034579;28;20045;-82
2021/05/24 06:03:15;;;;;;;6.78;4.30;;;12.40;93.30;;;;;;5049947;28;20053;-82
2021/05/24 06:05:41;;;;;;;3.13;1.98;;;12.60;92.70;;;;;;5059004;28;20072;-83
2021/05/24 06:08:07;;;;;;;6.28;3.40;;;12.60;93.40;;;;;;5032822;28;20048;-82
2021/05/24 06:10:34;;;;;;;5.40;3.25;;;12.50;93.80;;;;;;5035645;28;20052;-82
2021/05/24 06:13:00;;;;;;;4.88;2.92;;;12.40;94.60;;;;;;5050767;28;20052;-82
2021/05/24 06:15:26;;;;;;;5.97;3.25;;;12.30;95.10;;;;;;5050672;28;20489;-90
2021/05/24 06:17:53;;;;;;;4.90;2.88;;;12.20;95.00;;;;;;5050126;28;20069;-83
2021/05/24 06:20:19;;;;;;;5.72;2.72;;;12.10;95.30;;;;;;5033710;28;20095;-83
2021/05/24 06:22:44;;;;;;;3.90;2.25;;;11.90;96.00;;;;;;5032831;28;20168;-82
2021/05/24 06:25:12;;;;;;;5.82;2.55;;;11.80;96.20;;;;;;5050506;28;20143;-81
2021/05/24 06:27:38;;;;;;;3.47;2.20;;;11.70;96.40;;;;;;5048776;28;20041;-82
2021/05/24 06:30:06;;;;;;;4.75;2.80;;;11.60;96.50;;;;;;5049496;28;20485;-81
2021/05/24 06:32:32;;;;;;;4.68;2.67;;;11.60;96.50;;;;;;5049630;28;20048;-81
2021/05/24 06:34:58;;;;;;;6.95;3.17;;;11.50;96.90;;;;;;5055463;28;20488;-82
2021/05/24 06:37:24;;;;;;;3.22;1.98;;;11.50;97.20;;;;;;5061879;28;20053;-86
2021/05/24 06:39:50;;;;;;;2.20;1.95;;;11.50;97.10;;;;;;5049533;28;20083;-82
2021/05/24 06:42:15;;;;;;;3.53;2.10;;;11.50;97.40;;;;;;5049497;28;20438;-84
2021/05/24 06:44:41;;;;;;;3.15;1.90;;;11.50;97.50;;;;;;5050772;28;20077;-83
2021/05/24 06:47:08;;;;;;;1.90;1.60;;;11.50;97.50;;;;;;5033097;28;20049;-83
2021/05/24 06:49:35;;;;;;;2.05;1.77;;;11.50;97.40;;;;;;5049816;28;20045;-82
2021/05/24 06:52:04;;;;;;;2.72;1.60;;;11.50;97.30;;;;;;5044830;28;20143;-84
2021/05/24 06:54:31;;;;;;;2.40;1.52;;;11.50;97.10;;;;;;5068697;28;20048;-81
2021/05/24 06:56:57;;;;;;;2.25;1.60;;;11.60;97.00;;;;;;5083508;28;20415;-82
2021/05/24 06:59:23;;;;;;;2.45;1.48;;;11.60;97.00;;;;;;5063985;28;20136;-82
2021/05/24 07:01:49;;;;;;;1.95;1.60;;;11.60;96.90;;;;;;5050629;28;20064;-83
2021/05/24 07:04:15;;;;;;;2.70;1.60;;;11.60;96.80;;;;;;5051553;28;20083;-82
2021/05/24 07:06:41;;;;;;;3.15;1.60;;;11.60;96.80;;;;;;5069047;28;20143;-82
2021/05/24 07:09:07;;;;;;;3.10;1.45;;;11.60;96.80;;;;;;5062017;28;20052;-83
2021/05/24 07:11:32;;;;;;;2.30;1.48;;;11.70;96.80;;;;;;5068482;28;20047;-81
2021/05/24 07:13:58;;;;;;;2.67;1.40;;;11.70;96.80;;;;;;5070219;28;20049;-82
2021/05/24 07:16:24;;;;;;;2.85;1.60;;;11.80;96.70;;;;;;5061021;28;20094;-82
2021/05/24 07:18:50;;;;;;;2.85;1.80;;;11.80;96.70;;;;;;5070265;28;20545;-82
2021/05/24 07:21:15;;;;;;;3.05;1.63;;;11.80;96.70;;;;;;5066255;28;20052;-82
2021/05/24 07:23:41;;;;;;;3.15;1.75;;;11.80;96.80;;;;;;5077298;28;20126;-82
2021/05/24 07:26:07;;;;;;;4.35;1.67;;;11.90;96.70;;;;;;5075857;28;20504;-83
2021/05/24 07:28:33;;;;;;;2.05;1.73;;;11.90;96.80;;;;;;5068933;28;20460;-82
2021/05/24 07:30:58;;;;;;;2.45;1.63;;;12.00;96.70;;;;;;5050661;28;20124;-82
2021/05/24 07:33:24;;;;;;;2.83;1.60;;;12.00;96.90;;;;;;5047803;28;20488;-86
2021/05/24 07:35:50;;;;;;;3.22;1.77;;;12.00;97.00;;;;;;5068002;28;20054;-84
2021/05/24 07:38:16;;;;;;;2.15;1.52;;;12.10;97.00;;;;;;5066906;28;20048;-82
2021/05/24 07:40:42;;;;;;;3.53;1.90;;;12.10;97.00;;;;;;5067336;28;20072;-88
2021/05/24 07:43:08;;;;;;;2.38;1.35;;;12.10;96.80;;;;;;5055743;28;20045;-82
2021/05/24 07:45:33;;;;;;;3.67;1.50;;;12.20;96.80;;;;;;5054946;28;20127;-82
2021/05/24 07:48:00;;;;;;;1.85;1.38;;;12.20;96.70;;;;;;5068054;28;20052;-81
2021/05/24 07:50:26;;;;;;;3.50;1.63;;;12.30;96.50;;;;;;5067866;28;20194;-82
2021/05/24 07:52:52;;;;;;;2.75;1.77;;;12.30;96.50;;;;;;5051903;28;20052;-81
2021/05/24 07:55:18;;;;;;;4.20;2.17;;;12.40;96.90;;;;;;5057885;28;20064;-81
2021/05/24 07:57:44;;;;;;;4.32;2.30;;;12.40;96.50;;;;;;5032604;28;20374;-81
2021/05/24 08:00:11;;;;;;;6.20;2.67;;;12.50;96.50;;;;;;5029963;28;20041;-82
2021/05/24 08:02:41;;;;;;;4.85;2.80;;;12.50;96.40;;;;;;5047724;28;20041;-82
2021/05/24 08:05:09;;;;;;;7.07;4.40;;;12.60;96.30;;;;;;5049254;28;20041;-82
2021/05/24 08:07:35;;;;;;;5.70;3.60;;;12.60;96.20;;;;;;5048882;28;20049;-83
2021/05/24 08:10:02;;;;;;;5.25;3.47;;;12.60;96.20;;;;;;5038912;28;20136;-84
2021/05/24 08:12:28;;;;;;;4.97;2.90;;;12.60;96.30;;;;;;5027828;28;20139;-89
2021/05/24 08:14:54;;;;;;;5.20;2.65;;;12.70;96.70;;;;;;5015911;28;20536;-84
2021/05/24 08:17:20;;;;;;;4.30;2.70;;;12.60;96.60;;;;;;5010919;28;20064;-84
2021/05/24 08:19:48;;;;;;;6.28;2.55;;;12.90;96.70;;;;;;5047832;28;20052;-84
2021/05/24 08:22:14;;;;;;;2.80;1.90;;;12.70;95.70;;;;;;5049815;28;20084;-85
2021/05/24 08:24:40;;;;;;;4.35;2.00;;;12.70;95.60;;;;;;5042770;28;20079;-86
2021/05/24 08:27:08;;;;;;;3.40;2.10;;;12.80;95.60;;;;;;5041251;28;20053;-84
2021/05/24 08:29:35;;;;;;;3.17;2.15;;;13.00;95.40;;;;;;5024520;28;20060;-85
2021/05/24 08:32:02;;;;;;;3.97;2.10;;;12.90;95.60;;;;;;5014619;28;20060;-85
2021/05/24 08:34:31;;;;;;;2.45;1.60;;;12.90;95.60;;;;;;5016333;28;20059;-84
2021/05/24 08:36:56;;;;;;;2.85;1.70;;;13.20;96.20;;;;;;5024758;28;20559;-84
2021/05/24 08:39:25;;;;;;;3.63;1.70;;;13.00;96.00;;;;;;5027420;28;20061;-85
2021/05/24 08:41:55;;;;;;;2.28;1.75;;;13.20;95.40;;;;;;5044671;28;20412;-85
2021/05/24 08:44:21;;;;;;;5.70;2.50;;;13.20;95.30;;;;;;5036765;28;20115;-86
2021/05/24 08:46:47;;;;;;;3.80;2.10;;;13.30;95.30;;;;;;5029259;28;20049;-85
2021/05/24 08:49:14;;;;;;;2.65;2.10;;;13.40;95.10;;;;;;5027644;28;20080;-85
2021/05/24 08:51:39;;;;;;;2.15;1.75;;;13.40;95.00;;;;;;5066685;28;20593;-83
2021/05/24 08:54:06;;;;;;;3.53;1.92;;;13.40;94.60;;;;;;5066612;28;20061;-85
2021/05/24 08:56:34;;;;;;;3.33;1.92;;;13.40;94.50;;;;;;5063715;28;20052;-89
2021/05/24 08:59:02;;;;;;;2.42;1.92;;;12.90;94.40;;;;;;5068350;28;20057;-85
2021/05/24 09:01:28;;;;;;;2.83;1.70;;;13.40;94.10;;;;;;5064012;28;20055;-84
2021/05/24 09:04:02;;;;;;;4.00;2.00;;;13.40;94.70;;;;;;5085304;28;20406;-84
2021/05/24 09:06:42;;;;;;;3.05;1.90;;;13.50;94.40;;;;;;5066110;28;20048;-83
2021/05/24 09:09:09;;;;;;;3.53;1.85;;;13.50;94.40;;;;;;5054779;28;20055;-85
2021/05/24 09:11:35;;;;;;;3.80;1.90;;;13.60;94.60;;;;;;5055655;28;20052;-88
2021/05/24 09:14:01;;;;;;;3.20;1.77;;;13.80;94.90;;;;;;5078071;28;20063;-84
2021/05/24 09:16:31;;;;;;;3.78;1.90;;;13.80;94.60;;;;;;5024110;28;20081;-86
2021/05/24 09:19:16;;;;;;;3.22;1.88;;;13.70;94.20;;;;;;5081396;28;20141;-83
2021/05/24 09:22:02;;;;;;;;;;;13.80;93.80;;;;;;5049134;28;20101;-83
2021/05/24 09:24:32;;;;;;;3.78;2.17;;;13.80;94.30;;;;;;5081313;28;19928;-84
2021/05/24 09:27:00;;;;;;;3.33;1.75;;;13.80;94.20;;;;;;5070712;28;20048;-83
2021/05/24 09:29:40;;;;;;;3.25;1.67;;;13.90;94.20;;;;;;5076358;28;20048;-84
2021/05/24 09:32:25;;;;;;;3.45;1.90;;;13.90;94.30;;;;;;5059463;28;20124;-84
2021/05/24 09:34:54;;;;;;;3.40;1.67;;;13.90;94.20;;;;;;5073607;28;20094;-85
2021/05/24 09:37:30;;;;;;;2.47;1.50;;;13.90;94.20;;;;;;5052230;28;20468;-84
2021/05/24 09:39:56;;;;;;;3.35;2.20;;;13.80;93.90;;;;;;5075732;28;20114;-84
2021/05/24 09:42:23;;;;;;;2.20;1.48;;;13.80;94.20;;;;;;5060641;28;20064;-86
2021/05/24 09:44:54;;;;;;;3.47;1.90;;;13.80;93.80;;;;;;5068209;28;20484;-84
2021/05/24 09:47:37;;;;;;;3.25;1.80;;;13.80;94.10;;;;;;5080194;28;20135;-82
2021/05/24 09:50:11;;;;;;;2.47;1.88;;;13.80;94.00;;;;;;5085960;28;20056;-83
2021/05/24 09:52:38;;;;;;;3.05;1.80;;;13.80;93.20;;;;;;5035819;28;20052;-86
2021/05/24 09:55:22;;;;;;;2.25;1.60;;;13.70;93.40;;;;;;5067557;28;20432;-84
2021/05/24 09:58:14;;;;;;;2.42;1.60;;;13.70;93.50;;;;;;5059811;28;20049;-84
2021/05/24 10:03:07;;;;;;;2.25;1.70;;;13.70;93.90;;;;;;5048765;28;20048;-84
2021/05/24 10:05:43;;;;;;;2.38;1.63;;;13.80;93.90;;;;;;5051163;28;20049;-84
2021/05/24 10:08:10;;;;;;;2.63;1.58;;;13.90;93.60;;;;;;5050542;28;20075;-84
2021/05/24 10:10:37;;;;;;;2.85;1.60;;;13.90;93.60;;;;;;5051361;28;20389;-82
2021/05/24 10:13:03;;;;;;;3.38;1.63;;;14.10;93.80;;;;;;5052126;28;20061;-81
2021/05/24 10:15:29;;;;;;;2.65;1.80;;;14.10;93.80;;;;;;5056497;28;20041;-84
2021/05/24 10:18:01;;;;;;;3.75;1.90;;;14.20;94.10;;;;;;5056898;28;20059;-84
2021/05/24 10:20:31;;;;;;;2.80;1.80;;;14.20;93.80;;;;;;5058471;28;20049;-83
2021/05/24 10:22:58;;;;;;;3.17;2.10;;;14.10;93.80;;;;;;5053600;28;20201;-83
2021/05/24 10:25:25;;;;;;;4.35;2.00;;;14.10;93.90;;;;;;5053305;28;20037;-83
2021/05/24 10:27:52;;;;;;;2.60;1.60;;;14.10;93.80;;;;;;5032039;28;20060;-83
2021/05/24 10:30:19;;;;;;;3.42;1.70;;;14.10;93.60;;;;;;5050676;28;20041;-82
2021/05/24 10:32:56;;;;;;;2.80;1.60;;;14.10;93.70;;;;;;5048116;28;20048;-82
2021/05/24 10:35:44;;;;;;;3.53;1.50;;;14.20;93.70;;;;;;5032134;28;20131;-83
2021/05/24 10:38:32;;;;;;;2.80;1.70;;;14.30;93.60;;;;;;5023091;28;20056;-82
2021/05/24 10:41:16;;;;;;;3.40;1.70;;;14.30;93.80;;;;;;5029629;28;20100;-84
2021/05/24 10:43:43;;;;;;;2.88;1.40;;;14.30;93.20;;;;;;5035828;28;20049;-82
2021/05/24 10:46:29;;;;;;;2.97;1.80;;;14.30;93.60;;;;;;5036818;28;20049;-85
2021/05/24 10:48:59;;;;;;;3.42;1.67;;;14.20;93.30;;;;;;5052310;28;20485;-82
2021/05/24 10:51:45;;;;;;;2.72;1.70;;;14.20;93.40;;;;;;5034564;28;20060;-83
2021/05/24 10:54:34;;;;;;;2.65;1.60;;;14.20;93.70;;;;;;5031097;28;20051;-84
2021/05/24 10:57:00;;;;;;;2.75;1.58;;;14.10;93.80;;;;;;5051524;28;20044;-82
2021/05/24 10:59:47;;;;;;;3.35;1.88;;;14.00;94.10;;;;;;5038439;28;20444;-82
2021/05/24 11:02:27;;;;;;;2.53;1.80;;;13.90;93.70;;;;;;5036729;28;20057;-84
2021/05/24 11:04:56;;;;;;;3.95;1.40;;;13.80;93.70;;;;;;5032643;28;20049;-84
2021/05/24 11:07:53;;;;;;;2.42;1.70;;;13.80;94.00;;;;;;5049530;28;20053;-82
2021/05/24 11:10:20;;;;;;;1.80;1.40;;;13.80;94.00;;;;;;5003434;28;20107;-85
2021/05/24 11:13:05;;;;;;;2.25;1.73;;;13.90;94.00;;;;;;5052099;28;20389;-84
2021/05/24 11:15:32;;;;;;;1.85;1.50;;;14.00;93.90;;;;;;5064172;28;20048;-84
2021/05/24 11:17:58;;;;;;;2.10;1.30;;;14.00;93.90;;;;;;5032294;28;20060;-82
2021/05/24 11:20:30;;;;;;;3.38;1.30;;;14.10;93.50;;;;;;5034162;28;20051;-82
2021/05/24 11:26:14;;;;;;;1.73;1.48;;;14.10;93.80;;;;;;5040862;28;20045;-83
2021/05/24 11:29:06;;;;;;;3.88;1.73;;;14.20;94.00;;;;;;5024001;28;20072;-88
2021/05/24 11:31:35;;;;;;;3.22;1.80;;;14.20;93.70;;;;;;5042670;28;20075;-82
2021/05/24 11:34:05;;;;;;;2.30;1.60;;;14.30;93.90;;;;;;5046342;28;20135;-84
2021/05/24 11:36:38;;;;;;;2.22;1.45;;;14.50;93.80;;;;;;5037534;28;20056;-83
2021/05/24 11:39:13;;;;;;;2.28;1.40;;;14.70;92.90;;;;;;5040265;28;20168;-85
2021/05/24 11:41:44;;;;;;;2.90;1.67;;;14.70;92.70;;;;;;5027205;28;20049;-88
2021/05/24 11:44:11;;;;;;;2.33;1.52;;;14.80;93.00;;;;;;5038908;28;20041;-85
2021/05/24 11:46:47;;;;;;;2.80;1.50;;;14.90;92.60;;;;;;5046945;28;20044;-81
2021/05/24 11:49:15;;;;;;;2.03;1.50;;;15.10;92.40;;;;;;5045383;28;20055;-84
2021/05/24 11:51:42;;;;;;;1.67;1.40;;;15.20;92.20;;;;;;5026503;28;20048;-86
2021/05/24 11:54:12;;;;;;;1.40;1.30;;;15.20;92.20;;;;;;5058710;28;20064;-81
2021/05/24 11:56:41;;;;;;;1.63;1.50;;;15.20;92.10;;;;;;5062483;28;20052;-88
2021/05/24 11:59:09;;;;;;;1.90;1.40;;;15.20;91.80;;;;;;5041270;28;20480;-83
2021/05/24 12:01:35;;;;;;;2.10;1.55;;;15.20;91.50;;;;;;5044940;28;20945;-86
2021/05/24 12:04:09;;;;;;;2.05;1.40;;;15.20;90.70;;;;;;5063190;28;20136;-81
2021/05/24 12:06:48;;;;;;;3.25;1.27;;;15.20;91.20;;;;;;5063281;28;20373;-85
2021/05/24 12:09:31;;;;;;;1.50;1.20;;;15.10;91.20;;;;;;5045215;28;20494;-80
2021/05/24 12:11:58;;;;;;;2.22;1.40;;;15.10;91.30;;;;;;5031500;28;21608;-85
2021/05/24 12:14:25;;;;;;;2.03;1.45;;;15.00;91.40;;;;;;5061856;28;20053;-85
2021/05/24 12:16:53;;;;;;;2.15;1.52;;;15.00;91.30;;;;;;5042084;28;20079;-82
2021/05/24 12:19:28;;;;;;;1.92;1.35;;;15.00;90.60;;;;;;5062065;28;20163;-82
2021/05/24 12:22:03;;;;;;;2.10;1.50;;;15.00;91.80;;;;;;5058701;28;21143;-83
2021/05/24 12:24:29;;;;;;;1.83;1.42;;;15.00;91.90;;;;;;5041621;28;20076;-84
2021/05/24 12:26:56;;;;;;;2.42;1.65;;;15.00;92.10;;;;;;5059325;28;20076;-85
2021/05/24 12:29:29;;;;;;;2.05;1.52;;;15.20;91.90;;;;;;5059363;28;20140;-83
2021/05/24 12:32:01;;;;;;;2.33;1.40;;;15.20;91.60;;;;;;5060928;28;20477;-83
2021/05/24 12:34:40;;;;;;;1.55;1.27;;;15.30;92.00;;;;;;5055734;28;20983;-84
2021/05/24 12:37:11;;;;;;;1.92;1.60;;;15.20;91.60;;;;;;5056021;28;20183;-83
2021/05/24 12:39:39;;;;;;;2.85;1.50;;;15.30;91.70;;;;;;5045574;28;21796;-85
2021/05/24 12:42:06;;;;;;;1.90;1.48;;;15.20;91.60;;;;;;5048508;28;20496;-83
2021/05/24 12:44:36;;;;;;;1.80;1.55;;;15.20;91.50;;;;;;5066610;28;20083;-82
2021/05/24 12:47:21;;;;;;;2.92;1.92;;;15.20;91.60;;;;;;5069418;28;20123;-82
2021/05/24 12:49:48;;;;;;;2.28;1.52;;;15.30;91.20;;;;;;5062228;28;20045;-86
2021/05/24 12:52:16;;;;;;;2.78;1.73;;;15.20;91.60;;;;;;5073506;28;20043;-83
2021/05/24 12:54:51;;;;;;;2.20;1.77;;;15.20;91.80;;;;;;5060006;28;20883;-88
2021/05/24 12:57:29;;;;;;;2.40;1.70;;;15.30;91.80;;;;;;5061601;28;20048;-81
2021/05/24 12:59:56;;;;;;;2.72;1.70;;;15.40;91.80;;;;;;5082130;28;20041;-79